Main page
METAR-TAF:

METAR-TAF

Airports :

Åre Östersund Airport

Östersund-Frösön, Sweden

latitude: 63-11N, longitude: 014-30E, elevation: 376 m

Current weather observation

The report was made 41 minutes ago, at 09:20 UTC
Wind 10 kt from the West/Northwest
Temperature 13°C
Humidity 82%
Pressure 1015 hPa
Visibility 10 km or more

METAR: ESNZ 120920Z AUTO 30010KT 9999 OVC022/// 13/10 Q1015

Time: 12:01 (10:01 UTC)

Forecast

The report was made 31 minutes ago, at 09:30 UTC
Forecast valid from 12 at 10 UTC to 12 at 14 UTC
Wind 12 kt from the West/Northwest
Visibility 10 km or more
Broken clouds at a height of 3500 ft

TAF: ESNZ 120930Z 1210/1214 29012KT 9999 BKN035

Weather observations and forecasts of more than 4000 airports (METAR and TAF reports).

The available stations are represented by yellow and red dots on the map.

Hover mouse over dot to see the name of the station.

Then click to see weather observations and forecasts.

To change the map : click on the green buttons with a black cross to zoom in, on the green button with a dash to zoom out, or on the green arrows for adjacent maps.


METAR-TAF: